Time;durP1;ratioP1;P1;durP2;ratioP2;P2;SDS_P1;SDS_P2;PMS_P1;PMS_P2;Temp;Humidity;BMP_temperature;BMP_pressure;BME280_temperature;BME280_humidity;BME280_pressure;Samples;Min_cycle;Max_cycle;Signal;HPM_P1;HPM_P2
2024/02/17 00:01:35;;;;;;;8.55;4.38;;;;;;;;;;6243917;28;20048;-77
2024/02/17 00:04:37;;;;;;;7.90;4.57;;;;;;;;;;6249180;28;20171;-78
2024/02/17 00:07:41;;;;;;;12.07;6.50;;;;;;;;;;6273562;28;20129;-77
2024/02/17 00:10:43;;;;;;;10.07;5.80;;;;;;;;;;6273657;28;20044;-77
2024/02/17 00:13:47;;;;;;;8.68;5.88;;;;;;;;;;6254455;28;20471;-77
2024/02/17 00:16:49;;;;;;;21.73;9.20;;;;;;;;;;6264790;28;20045;-78
2024/02/17 00:19:52;;;;;;;10.60;7.07;;;;;;;;;;6233680;28;20133;-78
2024/02/17 00:22:56;;;;;;;12.23;8.02;;;;;;;;;;6262337;28;20503;-77
2024/02/17 00:25:58;;;;;;;7.55;4.85;;;;;;;;;;6289246;28;20037;-78
2024/02/17 00:29:01;;;;;;;7.43;3.88;;;;;;;;;;6272530;28;20048;-78
2024/02/17 00:32:04;;;;;;;7.40;4.50;;;;;;;;;;6256152;28;20176;-78
2024/02/17 00:35:06;;;;;;;6.97;4.70;;;;;;;;;;6268791;28;20163;-80
2024/02/17 00:38:08;;;;;;;8.75;4.32;;;;;;;;;;6262934;28;20101;-78
2024/02/17 00:41:10;;;;;;;7.57;5.05;;;;;;;;;;6274769;28;20049;-79
2024/02/17 00:44:16;;;;;;;10.57;5.00;;;;;;;;;;6265929;28;20045;-78
2024/02/17 00:47:18;;;;;;;11.35;6.05;;;;;;;;;;6267435;28;20029;-79
2024/02/17 00:50:21;;;;;;;10.45;6.10;;;;;;;;;;6256324;28;20067;-78
2024/02/17 00:53:23;;;;;;;9.70;5.85;;;;;;;;;;6247538;28;20055;-78
2024/02/17 00:56:26;;;;;;;9.32;6.07;;;;;;;;;;6262610;28;20116;-79
2024/02/17 00:59:28;;;;;;;8.05;4.70;;;;;;;;;;6281600;28;20047;-78
2024/02/17 01:02:32;;;;;;;11.18;6.05;;;;;;;;;;6253514;28;20942;-78
2024/02/17 01:05:36;;;;;;;6.53;4.30;;;;;;;;;;6265424;28;20072;-78
2024/02/17 01:08:39;;;;;;;6.30;4.18;;;;;;;;;;6280336;28;20044;-78
2024/02/17 01:11:41;;;;;;;10.75;5.22;;;;;;;;;;6262233;28;20125;-77
2024/02/17 01:14:43;;;;;;;8.52;4.50;;;;;;;;;;6281758;28;20052;-78
2024/02/17 01:17:46;;;;;;;6.63;4.38;;;;;;;;;;6248610;28;20040;-77
2024/02/17 01:20:50;;;;;;;7.75;5.00;;;;;;;;;;6267882;28;20056;-78
2024/02/17 01:23:53;;;;;;;7.22;5.03;;;;;;;;;;6228749;28;20051;-77
2024/02/17 01:26:55;;;;;;;10.35;5.93;;;;;;;;;;6264657;28;20517;-77
2024/02/17 01:29:59;;;;;;;10.13;5.00;;;;;;;;;;6286386;28;20044;-77
2024/02/17 01:33:01;;;;;;;9.93;6.13;;;;;;;;;;6247015;28;20048;-78
2024/02/17 01:36:03;;;;;;;9.68;5.22;;;;;;;;;;6244219;28;20044;-78
2024/02/17 01:39:05;;;;;;;11.93;6.40;;;;;;;;;;6264739;28;20595;-77
2024/02/17 01:42:09;;;;;;;10.63;4.72;;;;;;;;;;6254968;28;20048;-78
2024/02/17 01:45:12;;;;;;;11.02;5.75;;;;;;;;;;6250389;28;20052;-77
2024/02/17 01:48:15;;;;;;;10.05;5.15;;;;;;;;;;6283309;28;20135;-77
2024/02/17 01:51:18;;;;;;;7.38;4.07;;;;;;;;;;6250643;28;20120;-78
2024/02/17 01:54:21;;;;;;;7.15;4.63;;;;;;;;;;6285693;28;20036;-77
2024/02/17 01:57:24;;;;;;;9.48;5.30;;;;;;;;;;6294257;28;20058;-78
2024/02/17 02:00:28;;;;;;;9.80;5.57;;;;;;;;;;6275936;28;20037;-78
2024/02/17 02:03:32;;;;;;;8.15;4.35;;;;;;;;;;6277323;28;20056;-77
2024/02/17 02:06:39;;;;;;;11.80;4.40;;;;;;;;;;6250091;28;20045;-77
2024/02/17 02:09:43;;;;;;;7.68;4.85;;;;;;;;;;6255615;28;20088;-77
2024/02/17 02:12:46;;;;;;;10.32;5.40;;;;;;;;;;6239461;28;20592;-77
2024/02/17 02:15:48;;;;;;;7.05;5.05;;;;;;;;;;6267382;28;20044;-77
2024/02/17 02:18:56;;;;;;;8.85;5.20;;;;;;;;;;6250150;28;20059;-77
2024/02/17 02:22:00;;;;;;;10.90;6.20;;;;;;;;;;6262120;28;20139;-78
2024/02/17 02:25:06;;;;;;;9.32;5.72;;;;;;;;;;6241592;28;20132;-77
2024/02/17 02:28:10;;;;;;;7.38;5.25;;;;;;;;;;6268521;28;20040;-77
2024/02/17 02:31:14;;;;;;;8.32;5.05;;;;;;;;;;6267589;28;20041;-77
2024/02/17 02:34:16;;;;;;;9.45;5.80;;;;;;;;;;6264027;28;20044;-77
2024/02/17 02:37:18;;;;;;;10.35;5.00;;;;;;;;;;6267136;28;20580;-76
2024/02/17 02:40:21;;;;;;;7.05;4.85;;;;;;;;;;6267864;28;20041;-77
2024/02/17 02:43:24;;;;;;;6.07;5.13;;;;;;;;;;6268612;28;20040;-77
2024/02/17 02:46:26;;;;;;;11.90;5.68;;;;;;;;;;6264921;28;20048;-78
2024/02/17 02:49:28;;;;;;;7.32;5.30;;;;;;;;;;6268333;28;20037;-77
2024/02/17 02:52:31;;;;;;;9.00;5.50;;;;;;;;;;6286325;28;20128;-77
2024/02/17 02:55:33;;;;;;;8.38;6.38;;;;;;;;;;6266292;28;20056;-78
2024/02/17 02:58:36;;;;;;;9.80;5.30;;;;;;;;;;6234007;28;20863;-77
2024/02/17 03:01:39;;;;;;;10.82;5.97;;;;;;;;;;6267788;28;20151;-76
2024/02/17 03:04:41;;;;;;;11.73;7.35;;;;;;;;;;6246440;28;20102;-77
2024/02/17 03:07:44;;;;;;;11.27;6.38;;;;;;;;;;6280481;28;20036;-77
2024/02/17 03:10:46;;;;;;;11.48;7.82;;;;;;;;;;6263345;28;20056;-77
2024/02/17 03:13:50;;;;;;;11.45;6.18;;;;;;;;;;6285533;28;20588;-77
2024/02/17 03:16:53;;;;;;;12.23;6.93;;;;;;;;;;6226436;28;20045;-77
2024/02/17 03:19:55;;;;;;;10.43;6.13;;;;;;;;;;6280557;28;20040;-78
2024/02/17 03:22:59;;;;;;;13.27;7.75;;;;;;;;;;6267637;28;20522;-77
2024/02/17 03:26:01;;;;;;;8.35;6.30;;;;;;;;;;6280624;28;20044;-77
2024/02/17 03:29:03;;;;;;;16.77;8.63;;;;;;;;;;6275833;28;20045;-77
2024/02/17 03:32:06;;;;;;;17.55;7.18;;;;;;;;;;6249548;28;20163;-77
2024/02/17 03:35:10;;;;;;;10.93;7.43;;;;;;;;;;6258195;28;20411;-77
2024/02/17 03:38:12;;;;;;;11.70;7.20;;;;;;;;;;6269413;28;20041;-77
2024/02/17 03:41:18;;;;;;;13.88;8.05;;;;;;;;;;6227370;28;20063;-78
2024/02/17 03:44:21;;;;;;;12.55;7.97;;;;;;;;;;6286600;28;20580;-78
2024/02/17 03:47:23;;;;;;;14.93;6.65;;;;;;;;;;6277891;28;20142;-77
2024/02/17 03:50:27;;;;;;;11.02;6.15;;;;;;;;;;6241328;28;20054;-77
2024/02/17 03:53:29;;;;;;;10.35;6.68;;;;;;;;;;6284267;28;20855;-78
2024/02/17 03:56:31;;;;;;;10.32;6.53;;;;;;;;;;6246843;28;20112;-78
2024/02/17 03:59:34;;;;;;;8.95;5.55;;;;;;;;;;6245330;28;20048;-78
2024/02/17 04:02:36;;;;;;;10.70;6.18;;;;;;;;;;6274915;28;20045;-77
2024/02/17 04:05:38;;;;;;;13.65;7.20;;;;;;;;;;6255247;28;20040;-79
2024/02/17 04:08:40;;;;;;;15.88;6.28;;;;;;;;;;6253404;28;20708;-78
2024/02/17 04:11:43;;;;;;;8.50;6.45;;;;;;;;;;6262726;28;20081;-78
2024/02/17 04:14:46;;;;;;;12.07;7.65;;;;;;;;;;6270536;28;20705;-78
2024/02/17 04:17:48;;;;;;;11.43;6.32;;;;;;;;;;6280443;28;20043;-78
2024/02/17 04:20:50;;;;;;;12.93;6.43;;;;;;;;;;6244653;28;20056;-78
2024/02/17 04:23:53;;;;;;;12.43;6.07;;;;;;;;;;6256563;28;20110;-78
2024/02/17 04:26:56;;;;;;;13.88;6.95;;;;;;;;;;6256783;28;20135;-78
2024/02/17 04:29:58;;;;;;;10.10;5.97;;;;;;;;;;6242693;28;20513;-78
2024/02/17 04:33:00;;;;;;;12.57;7.45;;;;;;;;;;6268971;28;20044;-78
2024/02/17 04:36:04;;;;;;;12.50;7.53;;;;;;;;;;6281676;28;20123;-78
2024/02/17 04:39:06;;;;;;;11.40;6.43;;;;;;;;;;6247497;28;20049;-78
2024/02/17 04:42:09;;;;;;;14.48;7.75;;;;;;;;;;6229284;28;20040;-78
2024/02/17 04:45:12;;;;;;;11.02;7.20;;;;;;;;;;6259791;28;20060;-78
2024/02/17 04:48:14;;;;;;;17.58;7.75;;;;;;;;;;6279210;28;20232;-78
2024/02/17 04:51:16;;;;;;;12.85;8.60;;;;;;;;;;6253245;28;20644;-78
2024/02/17 04:54:19;;;;;;;12.98;8.30;;;;;;;;;;6261258;28;20049;-78
2024/02/17 04:57:21;;;;;;;16.27;11.00;;;;;;;;;;6264492;28;20112;-77
2024/02/17 05:00:23;;;;;;;15.35;9.35;;;;;;;;;;6263037;28;20056;-78
2024/02/17 05:03:26;;;;;;;13.25;7.75;;;;;;;;;;6278957;28;20137;-77
2024/02/17 05:06:29;;;;;;;16.23;8.38;;;;;;;;;;6242286;28;20136;-78
2024/02/17 05:09:32;;;;;;;13.88;9.02;;;;;;;;;;6238933;28;20701;-78
2024/02/17 05:12:35;;;;;;;16.08;9.40;;;;;;;;;;6277029;28;20143;-78
2024/02/17 05:15:37;;;;;;;14.15;8.75;;;;;;;;;;6279956;28;20136;-77
2024/02/17 05:18:41;;;;;;;14.15;7.93;;;;;;;;;;6244230;28;20273;-78
2024/02/17 05:21:43;;;;;;;13.32;8.07;;;;;;;;;;6255909;28;20553;-78
2024/02/17 05:24:47;;;;;;;16.23;10.70;;;;;;;;;;6235202;28;20602;-78
2024/02/17 05:27:49;;;;;;;15.13;7.75;;;;;;;;;;6278006;28;20044;-78
2024/02/17 05:30:54;;;;;;;14.75;9.93;;;;;;;;;;6258755;28;20147;-78
2024/02/17 05:33:56;;;;;;;15.63;9.23;;;;;;;;;;6278112;28;20052;-78
2024/02/17 05:36:59;;;;;;;22.65;10.13;;;;;;;;;;6277770;28;20052;-77
2024/02/17 05:40:03;;;;;;;16.88;8.80;;;;;;;;;;6262401;28;20067;-77
2024/02/17 05:43:04;;;;;;;23.02;12.90;;;;;;;;;;6229348;28;20050;-78
2024/02/17 05:46:08;;;;;;;21.80;13.93;;;;;;;;;;6261157;28;20049;-78
2024/02/17 05:49:10;;;;;;;24.20;11.70;;;;;;;;;;6262238;28;20526;-77
2024/02/17 05:52:13;;;;;;;41.75;23.45;;;;;;;;;;6240326;28;20063;-77
2024/02/17 05:55:17;;;;;;;47.25;31.13;;;;;;;;;;6257493;28;20064;-78
2024/02/17 05:58:20;;;;;;;40.40;20.60;;;;;;;;;;6255894;28;20552;-78
2024/02/17 06:01:22;;;;;;;16.00;9.07;;;;;;;;;;6270025;28;20056;-78
2024/02/17 06:04:24;;;;;;;22.20;11.65;;;;;;;;;;6260505;28;20087;-78
2024/02/17 06:07:28;;;;;;;21.55;11.65;;;;;;;;;;6263804;28;20055;-75
2024/02/17 06:10:32;;;;;;;36.80;16.02;;;;;;;;;;6272124;28;20045;-77
2024/02/17 06:13:34;;;;;;;34.40;18.30;;;;;;;;;;6260073;28;20136;-77
2024/02/17 06:16:36;;;;;;;20.70;15.35;;;;;;;;;;6261976;28;20064;-79
2024/02/17 06:23:00;;;;;;;12.45;7.65;;;;;;;;;;6283571;28;20166;-78
2024/02/17 06:26:04;;;;;;;12.88;7.68;;;;;;;;;;6253998;28;20056;-78
2024/02/17 06:29:06;;;;;;;30.63;15.07;;;;;;;;;;6259896;28;20086;-78
2024/02/17 06:32:09;;;;;;;21.52;12.18;;;;;;;;;;6283834;28;20518;-78
2024/02/17 06:35:12;;;;;;;15.77;8.70;;;;;;;;;;6247694;28;20741;-78
2024/02/17 06:38:19;;;;;;;13.35;8.88;;;;;;;;;;6243975;28;20078;-77
2024/02/17 06:41:23;;;;;;;12.95;9.27;;;;;;;;;;6266317;28;20190;-78
2024/02/17 06:44:27;;;;;;;16.48;9.52;;;;;;;;;;6271574;28;20056;-79
2024/02/17 06:47:29;;;;;;;15.45;10.32;;;;;;;;;;6309150;28;20060;-80
2024/02/17 06:50:32;;;;;;;15.05;8.80;;;;;;;;;;6273263;28;20047;-77
2024/02/17 06:53:35;;;;;;;17.70;9.10;;;;;;;;;;6273603;28;20184;-78
2024/02/17 06:56:37;;;;;;;16.70;10.30;;;;;;;;;;6286031;28;20052;-78
2024/02/17 06:59:39;;;;;;;12.75;6.78;;;;;;;;;;6273515;28;20160;-78
2024/02/17 07:02:42;;;;;;;9.43;5.80;;;;;;;;;;6252375;28;20053;-78
2024/02/17 07:05:44;;;;;;;11.43;7.20;;;;;;;;;;6289199;28;20055;-77
2024/02/17 07:08:47;;;;;;;14.35;8.07;;;;;;;;;;6281923;28;20041;-76
2024/02/17 07:11:50;;;;;;;14.57;7.00;;;;;;;;;;6288404;28;20041;-76
2024/02/17 07:14:54;;;;;;;12.05;6.75;;;;;;;;;;6268012;28;20603;-77
2024/02/17 07:18:00;;;;;;;12.20;6.40;;;;;;;;;;6276520;28;20049;-76
2024/02/17 07:21:05;;;;;;;10.90;7.68;;;;;;;;;;6265371;28;20048;-77
2024/02/17 07:24:10;;;;;;;12.73;6.13;;;;;;;;;;6283919;28;20068;-75
2024/02/17 07:27:12;;;;;;;11.95;7.45;;;;;;;;;;6268343;28;20046;-76
2024/02/17 07:30:15;;;;;;;13.48;8.23;;;;;;;;;;6263328;28;20053;-76
2024/02/17 07:33:18;;;;;;;12.35;6.05;;;;;;;;;;6286494;28;20190;-77
2024/02/17 07:36:21;;;;;;;14.95;9.13;;;;;;;;;;6283190;28;20044;-77
2024/02/17 07:39:24;;;;;;;12.38;7.38;;;;;;;;;;6264862;28;20589;-76
2024/02/17 07:42:28;;;;;;;16.00;8.20;;;;;;;;;;6233614;28;20056;-76
2024/02/17 07:45:30;;;;;;;12.88;7.85;;;;;;;;;;6281555;28;20055;-75
2024/02/17 07:48:42;;;;;;;12.90;7.55;;;;;;;;;;6259827;28;20529;-75
2024/02/17 07:51:46;;;;;;;12.50;7.28;;;;;;;;;;6281765;28;20621;-75
2024/02/17 07:54:49;;;;;;;15.60;10.30;;;;;;;;;;6278973;28;20041;-73
2024/02/17 07:57:51;;;;;;;17.67;10.52;;;;;;;;;;6266275;28;20516;-74
2024/02/17 08:00:54;;;;;;;15.25;10.40;;;;;;;;;;6246447;28;20049;-74
2024/02/17 08:03:56;;;;;;;16.23;9.15;;;;;;;;;;6276291;28;20069;-75
2024/02/17 08:06:59;;;;;;;14.90;9.80;;;;;;;;;;6277263;28;20086;-75
2024/02/17 08:10:01;;;;;;;18.85;10.88;;;;;;;;;;6260832;28;20132;-75
2024/02/17 08:13:04;;;;;;;15.35;8.85;;;;;;;;;;6262124;28;20135;-74
2024/02/17 08:16:08;;;;;;;13.25;9.65;;;;;;;;;;6248629;28;20052;-75
2024/02/17 08:19:10;;;;;;;16.60;10.55;;;;;;;;;;6265550;28;20116;-74
2024/02/17 08:22:13;;;;;;;14.10;9.15;;;;;;;;;;6279901;28;20190;-75
2024/02/17 08:25:14;;;;;;;16.58;9.05;;;;;;;;;;6276884;28;20735;-74
2024/02/17 08:28:17;;;;;;;17.15;9.95;;;;;;;;;;6261353;28;20043;-76
2024/02/17 08:31:23;;;;;;;;;;;;;;;;;;6265706;28;20044;-77
2024/02/17 08:34:25;;;;;;;20.88;11.25;;;;;;;;;;6242677;28;19932;-74
2024/02/17 08:37:27;;;;;;;17.48;10.60;;;;;;;;;;6260672;28;20170;-74
2024/02/17 08:40:29;;;;;;;20.92;12.43;;;;;;;;;;6260703;28;20625;-75
2024/02/17 08:43:33;;;;;;;20.38;10.57;;;;;;;;;;6274161;28;20052;-76
2024/02/17 08:46:35;;;;;;;12.80;8.60;;;;;;;;;;6244482;28;20744;-76
2024/02/17 08:49:38;;;;;;;14.88;8.88;;;;;;;;;;6274111;28;20540;-75
2024/02/17 08:52:40;;;;;;;14.07;8.70;;;;;;;;;;6256603;28;20051;-74
2024/02/17 08:55:43;;;;;;;17.33;9.57;;;;;;;;;;6249151;28;20048;-76
2024/02/17 08:58:45;;;;;;;16.00;9.00;;;;;;;;;;6279458;28;20035;-76
2024/02/17 09:01:47;;;;;;;12.35;8.00;;;;;;;;;;6259972;28;20057;-76
2024/02/17 09:04:49;;;;;;;13.63;7.68;;;;;;;;;;6239469;28;20044;-75
2024/02/17 09:07:53;;;;;;;15.30;8.88;;;;;;;;;;6279995;28;20649;-76
2024/02/17 09:10:55;;;;;;;16.05;8.50;;;;;;;;;;6260954;28;20051;-76
2024/02/17 09:13:58;;;;;;;15.23;8.65;;;;;;;;;;6262467;28;20052;-77
2024/02/17 09:17:00;;;;;;;17.85;10.88;;;;;;;;;;6243295;28;20520;-75
2024/02/17 09:20:04;;;;;;;17.50;10.20;;;;;;;;;;6251368;28;20258;-75
2024/02/17 09:23:07;;;;;;;19.45;9.50;;;;;;;;;;6276907;28;20084;-76
2024/02/17 09:26:10;;;;;;;16.55;11.48;;;;;;;;;;6278204;28;20048;-76
2024/02/17 09:29:12;;;;;;;17.45;9.93;;;;;;;;;;6262701;28;20037;-76
2024/02/17 09:32:15;;;;;;;14.00;8.30;;;;;;;;;;6244170;28;20111;-75
2024/02/17 09:35:18;;;;;;;18.48;9.63;;;;;;;;;;6287160;28;20059;-75
2024/02/17 09:38:20;;;;;;;13.60;8.35;;;;;;;;;;6257647;28;20044;-72
2024/02/17 09:41:22;;;;;;;16.10;10.85;;;;;;;;;;6266351;28;20087;-73
2024/02/17 09:44:25;;;;;;;15.10;9.70;;;;;;;;;;6275742;28;20045;-76
2024/02/17 09:47:29;;;;;;;17.27;9.02;;;;;;;;;;6278997;28;20065;-74
2024/02/17 09:50:34;;;;;;;15.18;7.75;;;;;;;;;;6262334;28;20632;-75
2024/02/17 09:53:40;;;;;;;15.55;6.30;;;;;;;;;;6276973;28;20044;-75
2024/02/17 09:56:42;;;;;;;10.73;6.63;;;;;;;;;;6286109;28;20044;-75
2024/02/17 09:59:44;;;;;;;10.13;5.65;;;;;;;;;;6311364;28;20076;-76
2024/02/17 10:02:48;;;;;;;12.02;7.53;;;;;;;;;;6241259;28;20048;-75
2024/02/17 10:05:51;;;;;;;11.77;8.13;;;;;;;;;;6295390;28;20051;-76
2024/02/17 10:08:53;;;;;;;13.25;7.70;;;;;;;;;;6280385;28;20044;-76
2024/02/17 10:11:55;;;;;;;11.18;7.70;;;;;;;;;;6293531;28;20045;-76
2024/02/17 10:15:00;;;;;;;12.82;7.82;;;;;;;;;;6314210;28;20044;-77
2024/02/17 10:18:04;;;;;;;12.63;7.43;;;;;;;;;;6281855;28;20087;-77
2024/02/17 10:21:08;;;;;;;10.20;5.15;;;;;;;;;;6273622;28;20049;-75
2024/02/17 10:24:10;;;;;;;12.68;8.43;;;;;;;;;;6281138;28;20067;-76
2024/02/17 10:27:13;;;;;;;15.10;7.10;;;;;;;;;;6298716;28;20045;-75
2024/02/17 10:30:16;;;;;;;12.50;7.80;;;;;;;;;;6271188;28;20041;-76
2024/02/17 10:33:20;;;;;;;13.40;10.27;;;;;;;;;;6288888;28;20047;-75
2024/02/17 10:36:22;;;;;;;16.85;9.93;;;;;;;;;;6286437;28;20410;-76
2024/02/17 10:39:27;;;;;;;17.25;10.20;;;;;;;;;;6264089;28;20130;-75
2024/02/17 10:42:30;;;;;;;14.07;8.77;;;;;;;;;;6262499;28;20061;-76
2024/02/17 10:45:32;;;;;;;11.15;7.72;;;;;;;;;;6261040;28;20122;-76
2024/02/17 10:48:35;;;;;;;12.30;7.15;;;;;;;;;;6284206;28;20067;-75
2024/02/17 10:51:47;;;;;;;10.57;6.03;;;;;;;;;;6284593;28;20593;-75
2024/02/17 10:55:12;;;;;;;10.98;7.07;;;;;;;;;;6287011;28;20048;-75
2024/02/17 10:58:16;;;;;;;13.98;8.52;;;;;;;;;;6256020;28;20040;-75
2024/02/17 11:01:18;;;;;;;11.25;6.75;;;;;;;;;;6276053;28;20045;-75
2024/02/17 11:04:22;;;;;;;12.35;7.70;;;;;;;;;;6269082;28;20049;-76
2024/02/17 11:07:26;;;;;;;13.98;7.07;;;;;;;;;;6274771;28;20122;-75
2024/02/17 11:10:29;;;;;;;11.57;7.65;;;;;;;;;;6300835;28;20071;-75
2024/02/17 11:13:33;;;;;;;13.23;7.68;;;;;;;;;;6277638;28;20060;-75
2024/02/17 11:16:35;;;;;;;12.98;8.80;;;;;;;;;;6297347;28;20044;-75
2024/02/17 11:19:38;;;;;;;11.73;7.38;;;;;;;;;;6243972;28;20064;-76
2024/02/17 11:22:50;;;;;;;11.02;6.30;;;;;;;;;;6301493;28;20596;-75
2024/02/17 11:25:54;;;;;;;11.60;7.25;;;;;;;;;;6289320;28;20045;-76
2024/02/17 11:28:56;;;;;;;9.75;6.40;;;;;;;;;;6262386;28;20127;-75
2024/02/17 11:32:00;;;;;;;11.32;7.43;;;;;;;;;;6280042;28;20052;-74
2024/02/17 11:35:03;;;;;;;11.45;6.97;;;;;;;;;;6261973;28;20048;-75
2024/02/17 11:38:06;;;;;;;18.90;9.45;;;;;;;;;;6256581;28;20049;-76
2024/02/17 11:41:12;;;;;;;13.30;8.98;;;;;;;;;;6273759;28;20052;-75
2024/02/17 11:44:15;;;;;;;11.73;7.57;;;;;;;;;;6260847;28;20041;-74
2024/02/17 11:47:17;;;;;;;16.25;9.15;;;;;;;;;;6298093;28;20044;-77
2024/02/17 11:50:19;;;;;;;13.32;8.25;;;;;;;;;;6267321;28;20143;-75
2024/02/17 11:53:22;;;;;;;13.70;8.63;;;;;;;;;;6282767;28;20041;-75
2024/02/17 11:56:24;;;;;;;15.65;9.40;;;;;;;;;;6301873;28;20044;-76
2024/02/17 11:59:28;;;;;;;14.40;9.60;;;;;;;;;;6266126;28;20048;-77
2024/02/17 12:02:31;;;;;;;12.05;8.00;;;;;;;;;;6262928;28;20044;-76
2024/02/17 12:05:36;;;;;;;20.08;8.18;;;;;;;;;;6256526;28;20513;-76
2024/02/17 12:08:40;;;;;;;14.35;7.25;;;;;;;;;;6256362;28;20049;-76
2024/02/17 12:11:43;;;;;;;14.57;7.15;;;;;;;;;;6264471;28;20052;-76
2024/02/17 12:14:45;;;;;;;14.50;7.03;;;;;;;;;;6244951;28;20040;-76
2024/02/17 12:17:47;;;;;;;11.35;7.68;;;;;;;;;;6254214;28;20100;-77
2024/02/17 12:20:50;;;;;;;11.82;7.05;;;;;;;;;;6266753;28;20044;-76
2024/02/17 12:23:54;;;;;;;14.18;7.05;;;;;;;;;;6248436;28;20052;-76
2024/02/17 12:26:57;;;;;;;14.52;9.07;;;;;;;;;;6247333;28;20037;-77
2024/02/17 12:29:59;;;;;;;10.95;6.45;;;;;;;;;;6267442;28;20512;-76
2024/02/17 12:33:06;;;;;;;13.60;7.38;;;;;;;;;;6282196;28;20040;-77
2024/02/17 12:36:14;;;;;;;10.55;6.15;;;;;;;;;;6246017;28;20776;-78
2024/02/17 12:39:16;;;;;;;10.38;6.13;;;;;;;;;;6243892;28;20485;-76
2024/02/17 12:42:19;;;;;;;10.55;6.00;;;;;;;;;;6243752;28;20068;-75
2024/02/17 12:45:25;;;;;;;11.43;7.25;;;;;;;;;;6260015;28;20036;-76
2024/02/17 12:48:28;;;;;;;11.32;7.50;;;;;;;;;;6268775;28;20540;-77
2024/02/17 12:51:32;;;;;;;11.45;7.60;;;;;;;;;;6238680;28;20053;-74
2024/02/17 12:54:35;;;;;;;13.13;7.07;;;;;;;;;;6254188;28;20063;-76
2024/02/17 12:57:37;;;;;;;10.90;6.85;;;;;;;;;;6256340;28;20086;-76
2024/02/17 13:00:39;;;;;;;11.27;6.43;;;;;;;;;;6286527;28;20148;-75
2024/02/17 13:03:41;;;;;;;14.65;7.53;;;;;;;;;;6268498;28;20059;-75
2024/02/17 13:06:43;;;;;;;10.63;6.32;;;;;;;;;;6264273;28;20056;-75
2024/02/17 13:09:46;;;;;;;13.07;6.18;;;;;;;;;;6247597;28;20442;-78
2024/02/17 13:12:48;;;;;;;11.60;6.72;;;;;;;;;;6266903;28;20864;-77
2024/02/17 13:15:51;;;;;;;9.93;6.10;;;;;;;;;;6265131;28;20056;-78
2024/02/17 13:18:56;;;;;;;11.18;6.88;;;;;;;;;;6268986;28;20048;-77
2024/02/17 13:22:00;;;;;;;9.95;5.93;;;;;;;;;;6282918;28;20525;-77
2024/02/17 13:25:02;;;;;;;11.07;5.28;;;;;;;;;;6264639;28;20150;-78
2024/02/17 13:28:05;;;;;;;12.63;5.90;;;;;;;;;;6285206;28;20033;-77
2024/02/17 13:31:08;;;;;;;11.85;7.25;;;;;;;;;;6268288;28;20049;-77
2024/02/17 13:34:11;;;;;;;11.23;5.95;;;;;;;;;;6264078;28;20059;-76
2024/02/17 13:37:14;;;;;;;10.73;5.28;;;;;;;;;;6250558;28;20048;-77
2024/02/17 13:40:17;;;;;;;8.85;5.38;;;;;;;;;;6237734;28;20041;-78
2024/02/17 13:43:20;;;;;;;9.25;5.30;;;;;;;;;;6274929;28;20127;-77
2024/02/17 13:46:22;;;;;;;9.90;5.18;;;;;;;;;;6263276;28;20101;-77
2024/02/17 13:49:24;;;;;;;10.45;5.13;;;;;;;;;;6262297;28;20151;-79
2024/02/17 13:52:31;;;;;;;7.85;5.72;;;;;;;;;;6253693;28;20060;-79
2024/02/17 13:55:34;;;;;;;11.90;8.13;;;;;;;;;;6261621;28;20094;-78
2024/02/17 13:58:41;;;;;;;7.85;4.80;;;;;;;;;;6244208;28;20132;-77
2024/02/17 14:01:44;;;;;;;6.68;4.15;;;;;;;;;;6245533;28;20048;-79
2024/02/17 14:04:46;;;;;;;7.03;4.55;;;;;;;;;;6259847;28;20739;-76
2024/02/17 14:07:49;;;;;;;6.07;4.05;;;;;;;;;;6273587;28;20196;-76
2024/02/17 14:10:52;;;;;;;8.65;4.00;;;;;;;;;;6258095;28;20530;-77
2024/02/17 14:14:00;;;;;;;9.07;4.57;;;;;;;;;;6274456;28;20095;-77
2024/02/17 14:17:03;;;;;;;7.43;4.47;;;;;;;;;;6277495;28;20055;-76
2024/02/17 14:20:09;;;;;;;9.73;4.60;;;;;;;;;;6260940;28;20043;-76
2024/02/17 14:23:11;;;;;;;8.38;4.82;;;;;;;;;;6260222;28;20040;-76
2024/02/17 14:26:13;;;;;;;7.22;4.38;;;;;;;;;;6245083;28;20101;-77
2024/02/17 14:29:18;;;;;;;7.72;4.80;;;;;;;;;;6282069;28;20055;-76
2024/02/17 14:32:20;;;;;;;7.45;4.82;;;;;;;;;;6256255;28;20043;-76
2024/02/17 14:35:22;;;;;;;11.50;4.35;;;;;;;;;;6268790;28;20040;-79
2024/02/17 14:38:24;;;;;;;12.93;6.00;;;;;;;;;;6269937;28;20043;-77
2024/02/17 14:41:26;;;;;;;8.63;6.38;;;;;;;;;;6279654;28;20049;-76
2024/02/17 14:44:30;;;;;;;10.98;5.43;;;;;;;;;;6277136;28;20041;-75
2024/02/17 14:47:33;;;;;;;9.10;5.28;;;;;;;;;;6261043;28;20044;-77
2024/02/17 14:50:39;;;;;;;8.35;5.63;;;;;;;;;;6281182;28;20097;-76
2024/02/17 14:53:41;;;;;;;124.20;62.97;;;;;;;;;;6243940;28;20131;-76
2024/02/17 14:56:43;;;;;;;25.15;12.95;;;;;;;;;;6268417;28;20560;-78
2024/02/17 14:59:45;;;;;;;7.63;5.03;;;;;;;;;;6267957;28;20242;-76
2024/02/17 15:02:49;;;;;;;8.18;5.10;;;;;;;;;;6265362;28;20056;-76
2024/02/17 15:05:51;;;;;;;6.35;3.50;;;;;;;;;;6285510;28;20043;-77
2024/02/17 15:08:53;;;;;;;6.60;3.47;;;;;;;;;;6268648;28;20113;-77
2024/02/17 15:11:57;;;;;;;7.13;4.03;;;;;;;;;;6248008;28;20044;-77
2024/02/17 15:15:02;;;;;;;7.00;3.42;;;;;;;;;;6268694;28;20052;-74
2024/02/17 15:18:05;;;;;;;7.45;3.28;;;;;;;;;;6244374;28;20113;-75
2024/02/17 15:21:09;;;;;;;6.80;3.72;;;;;;;;;;6266730;28;20113;-76
2024/02/17 15:24:11;;;;;;;5.65;2.47;;;;;;;;;;6254774;28;20107;-76
2024/02/17 15:27:13;;;;;;;9.57;2.88;;;;;;;;;;6275799;28;20898;-75
2024/02/17 15:30:16;;;;;;;5.50;2.67;;;;;;;;;;6210669;28;20109;-75
2024/02/17 15:33:18;;;;;;;5.28;3.40;;;;;;;;;;6258172;28;20048;-75
2024/02/17 15:36:20;;;;;;;5.05;3.35;;;;;;;;;;6238789;28;20061;-75
2024/02/17 15:39:28;;;;;;;4.93;2.50;;;;;;;;;;6263207;28;20047;-75
2024/02/17 15:42:31;;;;;;;4.70;2.95;;;;;;;;;;6281943;28;20053;-77
2024/02/17 15:45:35;;;;;;;6.45;3.28;;;;;;;;;;6282579;28;20229;-77
2024/02/17 15:48:38;;;;;;;5.20;2.40;;;;;;;;;;6249187;28;20186;-76
2024/02/17 15:51:40;;;;;;;6.10;2.60;;;;;;;;;;6266591;28;20080;-77
2024/02/17 15:54:44;;;;;;;5.35;3.67;;;;;;;;;;6221882;28;20051;-73
2024/02/17 15:57:48;;;;;;;6.97;3.38;;;;;;;;;;6289785;28;20040;-75
2024/02/17 16:00:52;;;;;;;6.82;3.53;;;;;;;;;;6258089;28;20139;-76
2024/02/17 16:03:55;;;;;;;8.27;4.22;;;;;;;;;;6283226;28;20055;-76
2024/02/17 16:06:58;;;;;;;5.50;3.92;;;;;;;;;;6284266;28;20512;-76
2024/02/17 16:10:00;;;;;;;8.13;4.15;;;;;;;;;;6263626;28;20518;-76
2024/02/17 16:13:02;;;;;;;10.98;5.43;;;;;;;;;;6259119;28;20079;-76
2024/02/17 16:16:07;;;;;;;14.82;5.43;;;;;;;;;;6278550;28;20075;-76
2024/02/17 16:19:09;;;;;;;29.23;19.35;;;;;;;;;;6249492;28;20051;-76
2024/02/17 16:22:12;;;;;;;13.13;5.45;;;;;;;;;;6244939;28;20044;-75
2024/02/17 16:25:15;;;;;;;10.05;5.05;;;;;;;;;;6251355;28;20590;-74
2024/02/17 16:28:18;;;;;;;14.00;5.57;;;;;;;;;;6249726;28;20055;-75
2024/02/17 16:31:20;;;;;;;14.80;6.43;;;;;;;;;;6265390;28;20052;-75
2024/02/17 16:34:22;;;;;;;13.52;7.50;;;;;;;;;;6246572;28;20041;-76
2024/02/17 16:37:25;;;;;;;14.23;7.20;;;;;;;;;;6260429;28;20041;-76
2024/02/17 16:40:27;;;;;;;16.10;9.68;;;;;;;;;;6252599;28;20040;-76
2024/02/17 16:43:31;;;;;;;13.50;8.80;;;;;;;;;;6264631;28;20056;-75
2024/02/17 16:46:33;;;;;;;15.75;7.68;;;;;;;;;;6262335;28;20072;-76
2024/02/17 16:49:36;;;;;;;18.15;9.00;;;;;;;;;;6224207;28;20041;-76
2024/02/17 16:52:39;;;;;;;15.20;7.95;;;;;;;;;;6275544;28;20040;-75
2024/02/17 16:55:41;;;;;;;21.50;9.95;;;;;;;;;;6280199;28;20052;-75
2024/02/17 16:58:43;;;;;;;30.65;17.67;;;;;;;;;;6261166;28;20051;-75
2024/02/17 17:01:45;;;;;;;38.10;23.27;;;;;;;;;;6254358;28;20056;-74
2024/02/17 17:04:49;;;;;;;41.90;21.45;;;;;;;;;;6234900;28;20044;-77
2024/02/17 17:07:52;;;;;;;53.53;28.45;;;;;;;;;;6280504;28;20045;-76
2024/02/17 17:10:56;;;;;;;45.25;27.20;;;;;;;;;;6299536;28;20043;-76
2024/02/17 17:14:00;;;;;;;31.27;22.13;;;;;;;;;;6270736;28;20894;-75
2024/02/17 17:17:02;;;;;;;14.85;9.20;;;;;;;;;;6254351;28;20055;-77
2024/02/17 17:20:08;;;;;;;12.20;7.75;;;;;;;;;;6242696;28;20059;-74
2024/02/17 17:23:10;;;;;;;11.77;6.93;;;;;;;;;;6244910;28;20801;-74
2024/02/17 17:26:12;;;;;;;10.07;6.47;;;;;;;;;;6258897;28;20129;-75
2024/02/17 17:29:14;;;;;;;14.02;7.88;;;;;;;;;;6262377;28;20056;-74
2024/02/17 17:32:17;;;;;;;15.77;7.20;;;;;;;;;;6250505;28;20060;-75
2024/02/17 17:35:19;;;;;;;11.63;7.53;;;;;;;;;;6239208;28;20056;-75
2024/02/17 17:38:22;;;;;;;12.55;7.20;;;;;;;;;;6257243;28;20742;-76
2024/02/17 17:41:25;;;;;;;11.50;7.32;;;;;;;;;;6264713;28;20159;-73
2024/02/17 17:44:30;;;;;;;15.77;8.48;;;;;;;;;;6291686;28;20052;-75
2024/02/17 17:47:32;;;;;;;10.43;5.82;;;;;;;;;;6250465;28;20068;-74
2024/02/17 17:50:34;;;;;;;12.70;5.75;;;;;;;;;;6243582;28;20055;-76
2024/02/17 17:53:36;;;;;;;8.85;5.55;;;;;;;;;;6270407;28;20060;-75
2024/02/17 17:56:41;;;;;;;11.20;5.25;;;;;;;;;;6228205;28;20513;-75
2024/02/17 17:59:43;;;;;;;10.35;7.68;;;;;;;;;;6257779;28;20720;-76
2024/02/17 18:02:49;;;;;;;12.70;7.47;;;;;;;;;;6243278;28;20158;-75
2024/02/17 18:05:53;;;;;;;9.95;5.88;;;;;;;;;;6257717;28;20079;-76